sensor_id;sensor_type;location;lat;lon;timestamp;temperature;humidity
42421;DHT22;28063;48.140;11.588;2023-07-13T00:02:23;19.70;99.90
42421;DHT22;28063;48.140;11.588;2023-07-13T00:04:49;19.60;99.90
42421;DHT22;28063;48.140;11.588;2023-07-13T00:07:16;19.50;99.90
42421;DHT22;28063;48.140;11.588;2023-07-13T00:09:46;19.50;99.90
42421;DHT22;28063;48.140;11.588;2023-07-13T00:12:26;19.60;99.90
42421;DHT22;28063;48.140;11.588;2023-07-13T00:14:53;19.50;99.90
42421;DHT22;28063;48.140;11.588;2023-07-13T00:17:18;19.50;99.90
42421;DHT22;28063;48.140;11.588;2023-07-13T00:19:44;19.50;99.90
42421;DHT22;28063;48.140;11.588;2023-07-13T00:22:11;19.60;99.90
42421;DHT22;28063;48.140;11.588;2023-07-13T00:24:36;19.60;99.90
42421;DHT22;28063;48.140;11.588;2023-07-13T00:27:08;19.70;99.90
42421;DHT22;28063;48.140;11.588;2023-07-13T00:29:34;19.70;99.90
42421;DHT22;28063;48.140;11.588;2023-07-13T00:31:59;19.70;99.90
42421;DHT22;28063;48.140;11.588;2023-07-13T00:34:25;19.80;99.90
42421;DHT22;28063;48.140;11.588;2023-07-13T00:36:51;19.80;99.90
42421;DHT22;28063;48.140;11.588;2023-07-13T00:39:17;19.70;99.90
42421;DHT22;28063;48.140;11.588;2023-07-13T00:41:42;19.70;99.90
42421;DHT22;28063;48.140;11.588;2023-07-13T00:44:14;19.70;99.90
42421;DHT22;28063;48.140;11.588;2023-07-13T00:46:41;19.60;99.90
42421;DHT22;28063;48.140;11.588;2023-07-13T00:49:19;19.60;99.90
42421;DHT22;28063;48.140;11.588;2023-07-13T00:51:50;19.60;99.90
42421;DHT22;28063;48.140;11.588;2023-07-13T00:54:23;19.60;99.90
42421;DHT22;28063;48.140;11.588;2023-07-13T00:56:52;19.60;99.90
42421;DHT22;28063;48.140;11.588;2023-07-13T00:59:20;19.60;99.90
42421;DHT22;28063;48.140;11.588;2023-07-13T01:01:46;19.60;99.90
42421;DHT22;28063;48.140;11.588;2023-07-13T01:04:12;19.60;99.90
42421;DHT22;28063;48.140;11.588;2023-07-13T01:06:40;19.60;99.90
42421;DHT22;28063;48.140;11.588;2023-07-13T01:09:07;19.60;99.90
42421;DHT22;28063;48.140;11.588;2023-07-13T01:11:33;19.60;99.90
42421;DHT22;28063;48.140;11.588;2023-07-13T01:14:00;19.50;99.90
42421;DHT22;28063;48.140;11.588;2023-07-13T01:16:29;19.50;99.90
42421;DHT22;28063;48.140;11.588;2023-07-13T01:18:56;19.40;99.90
42421;DHT22;28063;48.140;11.588;2023-07-13T01:21:26;19.40;99.90
42421;DHT22;28063;48.140;11.588;2023-07-13T01:23:52;19.40;99.90
42421;DHT22;28063;48.140;11.588;2023-07-13T01:26:18;19.40;99.90
42421;DHT22;28063;48.140;11.588;2023-07-13T01:28:43;19.40;99.90
42421;DHT22;28063;48.140;11.588;2023-07-13T01:31:09;19.40;99.90
42421;DHT22;28063;48.140;11.588;2023-07-13T01:33:37;19.30;99.90
42421;DHT22;28063;48.140;11.588;2023-07-13T01:36:05;19.30;99.90
42421;DHT22;28063;48.140;11.588;2023-07-13T01:38:32;19.30;99.90
42421;DHT22;28063;48.140;11.588;2023-07-13T01:40:59;19.30;99.90
42421;DHT22;28063;48.140;11.588;2023-07-13T01:43:24;19.30;99.90
42421;DHT22;28063;48.140;11.588;2023-07-13T01:45:50;19.30;99.90
42421;DHT22;28063;48.140;11.588;2023-07-13T01:48:16;19.30;99.90
42421;DHT22;28063;48.140;11.588;2023-07-13T01:50:42;19.30;99.90
42421;DHT22;28063;48.140;11.588;2023-07-13T01:53:08;19.40;99.90
42421;DHT22;28063;48.140;11.588;2023-07-13T01:55:34;19.30;99.90
42421;DHT22;28063;48.140;11.588;2023-07-13T01:58:01;19.20;99.90
42421;DHT22;28063;48.140;11.588;2023-07-13T02:00:26;19.20;99.90
42421;DHT22;28063;48.140;11.588;2023-07-13T02:02:52;19.20;99.90
42421;DHT22;28063;48.140;11.588;2023-07-13T02:05:18;19.20;99.90
42421;DHT22;28063;48.140;11.588;2023-07-13T02:07:44;19.30;99.90
42421;DHT22;28063;48.140;11.588;2023-07-13T02:10:11;19.20;99.90
42421;DHT22;28063;48.140;11.588;2023-07-13T02:12:37;19.20;99.90
42421;DHT22;28063;48.140;11.588;2023-07-13T02:15:04;19.20;99.90
42421;DHT22;28063;48.140;11.588;2023-07-13T02:17:30;19.10;99.90
42421;DHT22;28063;48.140;11.588;2023-07-13T02:19:55;19.10;99.90
42421;DHT22;28063;48.140;11.588;2023-07-13T02:22:21;19.10;99.90
42421;DHT22;28063;48.140;11.588;2023-07-13T02:24:47;19.10;99.90
42421;DHT22;28063;48.140;11.588;2023-07-13T02:27:13;19.10;99.90
42421;DHT22;28063;48.140;11.588;2023-07-13T02:29:39;19.20;99.90
42421;DHT22;28063;48.140;11.588;2023-07-13T02:32:05;19.20;99.90
42421;DHT22;28063;48.140;11.588;2023-07-13T02:34:31;19.20;99.90
42421;DHT22;28063;48.140;11.588;2023-07-13T02:36:56;19.20;99.90
42421;DHT22;28063;48.140;11.588;2023-07-13T02:39:22;19.30;99.90
42421;DHT22;28063;48.140;11.588;2023-07-13T02:41:48;19.30;99.90
42421;DHT22;28063;48.140;11.588;2023-07-13T02:44:14;19.30;99.90
42421;DHT22;28063;48.140;11.588;2023-07-13T02:46:40;19.30;99.90
42421;DHT22;28063;48.140;11.588;2023-07-13T02:49:06;19.30;99.90
42421;DHT22;28063;48.140;11.588;2023-07-13T02:51:32;19.30;99.90
42421;DHT22;28063;48.140;11.588;2023-07-13T02:54:00;19.30;99.90
42421;DHT22;28063;48.140;11.588;2023-07-13T02:56:27;19.20;99.90
42421;DHT22;28063;48.140;11.588;2023-07-13T02:58:53;19.20;99.90
42421;DHT22;28063;48.140;11.588;2023-07-13T03:01:20;19.10;99.90
42421;DHT22;28063;48.140;11.588;2023-07-13T03:03:46;19.10;99.90
42421;DHT22;28063;48.140;11.588;2023-07-13T03:08:39;18.60;99.90
42421;DHT22;28063;48.140;11.588;2023-07-13T03:11:11;18.40;99.90
42421;DHT22;28063;48.140;11.588;2023-07-13T03:13:39;18.10;99.90
42421;DHT22;28063;48.140;11.588;2023-07-13T03:16:05;18.00;99.90
42421;DHT22;28063;48.140;11.588;2023-07-13T03:18:31;17.80;99.90
42421;DHT22;28063;48.140;11.588;2023-07-13T03:20:57;17.80;99.90
42421;DHT22;28063;48.140;11.588;2023-07-13T03:23:23;17.70;99.90
42421;DHT22;28063;48.140;11.588;2023-07-13T03:25:50;17.60;99.90
42421;DHT22;28063;48.140;11.588;2023-07-13T03:28:26;17.60;99.90
42421;DHT22;28063;48.140;11.588;2023-07-13T03:31:02;17.60;99.90
42421;DHT22;28063;48.140;11.588;2023-07-13T03:33:28;17.60;99.90
42421;DHT22;28063;48.140;11.588;2023-07-13T03:35:54;17.60;99.90
42421;DHT22;28063;48.140;11.588;2023-07-13T03:38:20;17.60;99.90
42421;DHT22;28063;48.140;11.588;2023-07-13T03:40:45;17.60;99.90
42421;DHT22;28063;48.140;11.588;2023-07-13T03:43:11;17.60;99.90
42421;DHT22;28063;48.140;11.588;2023-07-13T03:45:39;17.60;99.90
42421;DHT22;28063;48.140;11.588;2023-07-13T03:48:05;17.60;99.90
42421;DHT22;28063;48.140;11.588;2023-07-13T03:50:31;17.60;99.90
42421;DHT22;28063;48.140;11.588;2023-07-13T03:53:00;17.70;99.90
42421;DHT22;28063;48.140;11.588;2023-07-13T03:55:26;17.70;99.90
42421;DHT22;28063;48.140;11.588;2023-07-13T03:57:59;17.80;99.90
42421;DHT22;28063;48.140;11.588;2023-07-13T04:00:25;17.80;99.90
42421;DHT22;28063;48.140;11.588;2023-07-13T04:02:51;17.80;99.90
42421;DHT22;28063;48.140;11.588;2023-07-13T04:05:16;17.90;99.90
42421;DHT22;28063;48.140;11.588;2023-07-13T04:07:42;17.90;99.90
42421;DHT22;28063;48.140;11.588;2023-07-13T04:10:08;17.90;99.90
42421;DHT22;28063;48.140;11.588;2023-07-13T04:12:34;17.90;99.90
42421;DHT22;28063;48.140;11.588;2023-07-13T04:15:00;17.90;99.90
42421;DHT22;28063;48.140;11.588;2023-07-13T04:17:25;18.00;99.90
42421;DHT22;28063;48.140;11.588;2023-07-13T04:19:51;17.90;99.90
42421;DHT22;28063;48.140;11.588;2023-07-13T04:22:17;17.90;99.90
42421;DHT22;28063;48.140;11.588;2023-07-13T04:24:42;17.90;99.90
42421;DHT22;28063;48.140;11.588;2023-07-13T04:27:09;17.80;99.90
42421;DHT22;28063;48.140;11.588;2023-07-13T04:29:34;17.90;99.90
42421;DHT22;28063;48.140;11.588;2023-07-13T04:32:00;18.00;99.90
42421;DHT22;28063;48.140;11.588;2023-07-13T04:34:26;18.00;99.90
42421;DHT22;28063;48.140;11.588;2023-07-13T04:36:51;18.10;99.90
42421;DHT22;28063;48.140;11.588;2023-07-13T04:39:17;18.10;99.90
42421;DHT22;28063;48.140;11.588;2023-07-13T04:41:43;18.10;99.90
42421;DHT22;28063;48.140;11.588;2023-07-13T04:44:08;18.20;99.90
42421;DHT22;28063;48.140;11.588;2023-07-13T04:46:34;18.20;99.90
42421;DHT22;28063;48.140;11.588;2023-07-13T04:49:00;18.30;99.90
42421;DHT22;28063;48.140;11.588;2023-07-13T04:51:26;18.30;99.90
42421;DHT22;28063;48.140;11.588;2023-07-13T04:53:51;18.30;99.90
42421;DHT22;28063;48.140;11.588;2023-07-13T04:56:17;18.30;99.90
42421;DHT22;28063;48.140;11.588;2023-07-13T04:58:43;18.30;99.90
42421;DHT22;28063;48.140;11.588;2023-07-13T05:01:09;18.30;99.90
42421;DHT22;28063;48.140;11.588;2023-07-13T05:03:35;18.40;99.90
42421;DHT22;28063;48.140;11.588;2023-07-13T05:06:03;18.50;99.90
42421;DHT22;28063;48.140;11.588;2023-07-13T05:08:29;18.50;99.90
42421;DHT22;28063;48.140;11.588;2023-07-13T05:10:55;18.50;99.90
42421;DHT22;28063;48.140;11.588;2023-07-13T05:13:21;18.50;99.90
42421;DHT22;28063;48.140;11.588;2023-07-13T05:15:55;18.50;99.90
42421;DHT22;28063;48.140;11.588;2023-07-13T05:18:21;18.60;99.90
42421;DHT22;28063;48.140;11.588;2023-07-13T05:20:47;18.60;99.90
42421;DHT22;28063;48.140;11.588;2023-07-13T05:23:19;18.60;99.90
42421;DHT22;28063;48.140;11.588;2023-07-13T05:25:45;18.70;99.90
42421;DHT22;28063;48.140;11.588;2023-07-13T05:28:10;18.70;99.90
42421;DHT22;28063;48.140;11.588;2023-07-13T05:54:57;18.80;99.90
42421;DHT22;28063;48.140;11.588;2023-07-13T05:57:22;18.90;99.90
42421;DHT22;28063;48.140;11.588;2023-07-13T05:59:48;19.20;99.90
42421;DHT22;28063;48.140;11.588;2023-07-13T06:02:14;19.40;99.90
42421;DHT22;28063;48.140;11.588;2023-07-13T06:04:39;19.70;99.90
42421;DHT22;28063;48.140;11.588;2023-07-13T06:07:05;19.90;99.90
42421;DHT22;28063;48.140;11.588;2023-07-13T06:09:31;20.00;99.90
42421;DHT22;28063;48.140;11.588;2023-07-13T06:11:56;20.10;99.90
42421;DHT22;28063;48.140;11.588;2023-07-13T06:14:22;20.10;99.90
42421;DHT22;28063;48.140;11.588;2023-07-13T06:16:48;20.10;99.90
42421;DHT22;28063;48.140;11.588;2023-07-13T06:19:13;20.10;99.80
42421;DHT22;28063;48.140;11.588;2023-07-13T06:21:39;20.10;99.50
42421;DHT22;28063;48.140;11.588;2023-07-13T06:24:04;20.10;99.30
42421;DHT22;28063;48.140;11.588;2023-07-13T06:26:30;20.30;99.10
42421;DHT22;28063;48.140;11.588;2023-07-13T06:28:57;20.70;98.80
42421;DHT22;28063;48.140;11.588;2023-07-13T06:31:22;21.50;96.90
42421;DHT22;28063;48.140;11.588;2023-07-13T06:33:48;21.70;94.90
42421;DHT22;28063;48.140;11.588;2023-07-13T06:36:14;21.90;93.80
42421;DHT22;28063;48.140;11.588;2023-07-13T06:38:40;22.70;93.40
42421;DHT22;28063;48.140;11.588;2023-07-13T06:41:07;23.20;90.40
42421;DHT22;28063;48.140;11.588;2023-07-13T06:43:33;23.30;90.20
42421;DHT22;28063;48.140;11.588;2023-07-13T06:45:59;23.10;88.40
42421;DHT22;28063;48.140;11.588;2023-07-13T06:48:25;22.70;90.10
42421;DHT22;28063;48.140;11.588;2023-07-13T06:50:51;22.50;90.50
42421;DHT22;28063;48.140;11.588;2023-07-13T06:53:19;22.10;90.80
42421;DHT22;28063;48.140;11.588;2023-07-13T06:55:45;21.90;91.20
42421;DHT22;28063;48.140;11.588;2023-07-13T06:58:12;21.70;91.50
42421;DHT22;28063;48.140;11.588;2023-07-13T07:00:38;21.60;91.80
42421;DHT22;28063;48.140;11.588;2023-07-13T07:03:05;21.60;92.10
42421;DHT22;28063;48.140;11.588;2023-07-13T07:05:31;21.70;92.00
42421;DHT22;28063;48.140;11.588;2023-07-13T07:07:57;21.90;91.30
42421;DHT22;28063;48.140;11.588;2023-07-13T07:10:22;22.10;90.80
42421;DHT22;28063;48.140;11.588;2023-07-13T07:12:48;22.10;89.80
42421;DHT22;28063;48.140;11.588;2023-07-13T07:15:14;22.20;89.40
42421;DHT22;28063;48.140;11.588;2023-07-13T07:17:40;22.30;89.10
42421;DHT22;28063;48.140;11.588;2023-07-13T07:20:06;22.70;87.30
42421;DHT22;28063;48.140;11.588;2023-07-13T07:22:32;23.00;82.90
42421;DHT22;28063;48.140;11.588;2023-07-13T07:24:58;22.80;80.90
42421;DHT22;28063;48.140;11.588;2023-07-13T07:27:24;22.50;80.80
42421;DHT22;28063;48.140;11.588;2023-07-13T07:29:50;22.10;81.20
42421;DHT22;28063;48.140;11.588;2023-07-13T07:32:15;21.90;82.30
42421;DHT22;28063;48.140;11.588;2023-07-13T07:34:41;21.90;83.20
42421;DHT22;28063;48.140;11.588;2023-07-13T07:37:09;21.80;84.00
42421;DHT22;28063;48.140;11.588;2023-07-13T07:39:36;21.70;84.20
42421;DHT22;28063;48.140;11.588;2023-07-13T07:42:02;21.80;84.60
42421;DHT22;28063;48.140;11.588;2023-07-13T07:44:27;21.80;84.40
42421;DHT22;28063;48.140;11.588;2023-07-13T07:46:53;21.90;83.80
42421;DHT22;28063;48.140;11.588;2023-07-13T07:49:19;21.80;83.30
42421;DHT22;28063;48.140;11.588;2023-07-13T07:51:45;21.70;82.80
42421;DHT22;28063;48.140;11.588;2023-07-13T07:54:11;21.70;82.90
42421;DHT22;28063;48.140;11.588;2023-07-13T07:56:36;21.50;82.10
42421;DHT22;28063;48.140;11.588;2023-07-13T07:59:02;21.20;83.10
42421;DHT22;28063;48.140;11.588;2023-07-13T08:01:28;21.10;84.50
42421;DHT22;28063;48.140;11.588;2023-07-13T08:03:53;20.90;84.70
42421;DHT22;28063;48.140;11.588;2023-07-13T08:06:19;20.80;85.00
42421;DHT22;28063;48.140;11.588;2023-07-13T08:08:45;20.70;84.50
42421;DHT22;28063;48.140;11.588;2023-07-13T08:11:11;20.50;84.60
42421;DHT22;28063;48.140;11.588;2023-07-13T08:13:37;20.30;85.50
42421;DHT22;28063;48.140;11.588;2023-07-13T08:16:04;20.40;86.50
42421;DHT22;28063;48.140;11.588;2023-07-13T08:18:31;20.40;86.10
42421;DHT22;28063;48.140;11.588;2023-07-13T08:25:53;20.20;82.70
42421;DHT22;28063;48.140;11.588;2023-07-13T08:28:22;20.20;83.50
42421;DHT22;28063;48.140;11.588;2023-07-13T08:30:48;20.20;83.50
42421;DHT22;28063;48.140;11.588;2023-07-13T08:33:18;20.10;82.30
42421;DHT22;28063;48.140;11.588;2023-07-13T08:35:48;20.00;82.80
42421;DHT22;28063;48.140;11.588;2023-07-13T08:38:14;19.90;83.90
42421;DHT22;28063;48.140;11.588;2023-07-13T08:40:41;19.80;83.70
42421;DHT22;28063;48.140;11.588;2023-07-13T08:43:19;19.80;84.10
42421;DHT22;28063;48.140;11.588;2023-07-13T08:46:13;19.90;83.50
42421;DHT22;28063;48.140;11.588;2023-07-13T08:48:47;19.90;82.80
42421;DHT22;28063;48.140;11.588;2023-07-13T08:54:16;20.00;80.40
42421;DHT22;28063;48.140;11.588;2023-07-13T08:56:45;20.10;78.30
42421;DHT22;28063;48.140;11.588;2023-07-13T08:59:15;20.20;76.10
42421;DHT22;28063;48.140;11.588;2023-07-13T09:04:57;20.60;72.80
42421;DHT22;28063;48.140;11.588;2023-07-13T09:10:28;20.60;71.80
42421;DHT22;28063;48.140;11.588;2023-07-13T09:13:16;20.60;71.10
42421;DHT22;28063;48.140;11.588;2023-07-13T09:15:45;20.60;70.40
42421;DHT22;28063;48.140;11.588;2023-07-13T09:18:18;20.60;70.50
42421;DHT22;28063;48.140;11.588;2023-07-13T09:21:07;20.80;70.10
42421;DHT22;28063;48.140;11.588;2023-07-13T09:23:35;20.90;70.00
42421;DHT22;28063;48.140;11.588;2023-07-13T09:26:22;21.00;67.30
42421;DHT22;28063;48.140;11.588;2023-07-13T09:29:06;21.10;67.40
42421;DHT22;28063;48.140;11.588;2023-07-13T09:31:42;21.30;67.20
42421;DHT22;28063;48.140;11.588;2023-07-13T09:34:11;21.50;67.20
42421;DHT22;28063;48.140;11.588;2023-07-13T09:36:38;21.70;65.70
42421;DHT22;28063;48.140;11.588;2023-07-13T09:42:01;21.90;63.70
42421;DHT22;28063;48.140;11.588;2023-07-13T09:44:32;21.90;63.10
42421;DHT22;28063;48.140;11.588;2023-07-13T09:46:59;21.90;63.00
42421;DHT22;28063;48.140;11.588;2023-07-13T09:49:26;21.80;63.40
42421;DHT22;28063;48.140;11.588;2023-07-13T09:52:05;21.80;64.80
42421;DHT22;28063;48.140;11.588;2023-07-13T09:54:34;22.00;64.50
42421;DHT22;28063;48.140;11.588;2023-07-13T09:57:02;22.40;63.60
42421;DHT22;28063;48.140;11.588;2023-07-13T09:59:33;22.70;61.50
42421;DHT22;28063;48.140;11.588;2023-07-13T10:02:00;22.80;60.40
42421;DHT22;28063;48.140;11.588;2023-07-13T10:04:35;23.00;61.10
42421;DHT22;28063;48.140;11.588;2023-07-13T10:07:09;23.20;59.50
42421;DHT22;28063;48.140;11.588;2023-07-13T10:09:36;23.40;59.10
42421;DHT22;28063;48.140;11.588;2023-07-13T10:12:12;23.70;58.80
42421;DHT22;28063;48.140;11.588;2023-07-13T10:14:38;24.00;58.00
42421;DHT22;28063;48.140;11.588;2023-07-13T10:17:10;24.20;55.60
42421;DHT22;28063;48.140;11.588;2023-07-13T10:19:38;24.50;55.40
42421;DHT22;28063;48.140;11.588;2023-07-13T10:22:39;24.90;54.30
42421;DHT22;28063;48.140;11.588;2023-07-13T10:25:04;25.30;52.90
42421;DHT22;28063;48.140;11.588;2023-07-13T10:27:36;25.50;52.30
42421;DHT22;28063;48.140;11.588;2023-07-13T10:30:27;25.60;51.80
42421;DHT22;28063;48.140;11.588;2023-07-13T10:32:58;25.70;50.90
42421;DHT22;28063;48.140;11.588;2023-07-13T10:35:26;25.60;51.40
42421;DHT22;28063;48.140;11.588;2023-07-13T10:38:05;25.50;51.60
42421;DHT22;28063;48.140;11.588;2023-07-13T10:40:41;25.60;52.20
42421;DHT22;28063;48.140;11.588;2023-07-13T10:43:20;25.70;52.30
42421;DHT22;28063;48.140;11.588;2023-07-13T10:45:47;26.10;51.90
42421;DHT22;28063;48.140;11.588;2023-07-13T10:48:16;26.20;51.60
42421;DHT22;28063;48.140;11.588;2023-07-13T10:50:44;26.20;51.70
42421;DHT22;28063;48.140;11.588;2023-07-13T10:53:27;26.40;51.90
42421;DHT22;28063;48.140;11.588;2023-07-13T10:56:00;26.60;51.60
42421;DHT22;28063;48.140;11.588;2023-07-13T10:58:43;26.60;50.90
42421;DHT22;28063;48.140;11.588;2023-07-13T11:01:14;26.90;51.10
42421;DHT22;28063;48.140;11.588;2023-07-13T11:06:13;26.80;50.10
42421;DHT22;28063;48.140;11.588;2023-07-13T11:11:33;26.10;52.10
42421;DHT22;28063;48.140;11.588;2023-07-13T11:14:01;26.20;52.90
42421;DHT22;28063;48.140;11.588;2023-07-13T11:16:45;26.20;52.20
42421;DHT22;28063;48.140;11.588;2023-07-13T11:24:30;26.80;51.20
42421;DHT22;28063;48.140;11.588;2023-07-13T11:27:40;26.70;50.80
42421;DHT22;28063;48.140;11.588;2023-07-13T11:30:25;26.20;51.50
42421;DHT22;28063;48.140;11.588;2023-07-13T11:33:25;26.00;53.40
42421;DHT22;28063;48.140;11.588;2023-07-13T11:36:00;26.00;53.70
42421;DHT22;28063;48.140;11.588;2023-07-13T11:40:54;26.20;51.50
42421;DHT22;28063;48.140;11.588;2023-07-13T11:43:20;26.10;50.80
42421;DHT22;28063;48.140;11.588;2023-07-13T11:45:49;26.20;49.30
42421;DHT22;28063;48.140;11.588;2023-07-13T11:48:35;25.90;49.90
42421;DHT22;28063;48.140;11.588;2023-07-13T11:51:04;25.70;48.70
42421;DHT22;28063;48.140;11.588;2023-07-13T11:53:45;25.60;47.90
42421;DHT22;28063;48.140;11.588;2023-07-13T11:56:12;25.50;48.30
42421;DHT22;28063;48.140;11.588;2023-07-13T11:58:38;25.70;48.70
42421;DHT22;28063;48.140;11.588;2023-07-13T12:01:04;25.70;48.30
42421;DHT22;28063;48.140;11.588;2023-07-13T12:03:32;25.70;48.50
42421;DHT22;28063;48.140;11.588;2023-07-13T12:06:05;25.90;48.90
42421;DHT22;28063;48.140;11.588;2023-07-13T12:08:39;26.10;49.50
42421;DHT22;28063;48.140;11.588;2023-07-13T12:11:14;26.50;49.40
42421;DHT22;28063;48.140;11.588;2023-07-13T12:13:40;26.90;48.90
42421;DHT22;28063;48.140;11.588;2023-07-13T12:16:28;27.20;48.60
42421;DHT22;28063;48.140;11.588;2023-07-13T12:18:55;27.00;48.80
42421;DHT22;28063;48.140;11.588;2023-07-13T12:21:30;26.60;49.30
42421;DHT22;28063;48.140;11.588;2023-07-13T12:23:56;26.40;50.40
42421;DHT22;28063;48.140;11.588;2023-07-13T12:26:22;26.40;50.10
42421;DHT22;28063;48.140;11.588;2023-07-13T12:28:52;26.50;50.20
42421;DHT22;28063;48.140;11.588;2023-07-13T12:36:40;27.40;48.70
42421;DHT22;28063;48.140;11.588;2023-07-13T12:41:53;27.50;49.00
42421;DHT22;28063;48.140;11.588;2023-07-13T12:44:28;27.30;49.80
42421;DHT22;28063;48.140;11.588;2023-07-13T12:47:03;27.30;50.20
42421;DHT22;28063;48.140;11.588;2023-07-13T12:49:31;27.20;49.70
42421;DHT22;28063;48.140;11.588;2023-07-13T12:52:02;27.10;50.40
42421;DHT22;28063;48.140;11.588;2023-07-13T12:54:29;27.20;49.70
42421;DHT22;28063;48.140;11.588;2023-07-13T12:56:57;27.20;49.70
42421;DHT22;28063;48.140;11.588;2023-07-13T12:59:25;27.20;50.60
42421;DHT22;28063;48.140;11.588;2023-07-13T13:01:53;27.60;50.20
42421;DHT22;28063;48.140;11.588;2023-07-13T13:04:19;28.00;49.60
42421;DHT22;28063;48.140;11.588;2023-07-13T13:06:48;28.40;48.40
42421;DHT22;28063;48.140;11.588;2023-07-13T13:09:16;28.80;47.40
42421;DHT22;28063;48.140;11.588;2023-07-13T13:11:43;28.70;46.20
42421;DHT22;28063;48.140;11.588;2023-07-13T13:14:09;27.90;47.40
42421;DHT22;28063;48.140;11.588;2023-07-13T13:16:55;27.50;48.40
42421;DHT22;28063;48.140;11.588;2023-07-13T13:19:25;27.40;47.80
42421;DHT22;28063;48.140;11.588;2023-07-13T13:21:52;27.40;48.30
42421;DHT22;28063;48.140;11.588;2023-07-13T13:24:20;27.60;47.90
42421;DHT22;28063;48.140;11.588;2023-07-13T13:26:47;28.00;48.20
42421;DHT22;28063;48.140;11.588;2023-07-13T13:29:23;28.30;47.40
42421;DHT22;28063;48.140;11.588;2023-07-13T13:31:50;28.30;46.50
42421;DHT22;28063;48.140;11.588;2023-07-13T13:34:17;28.30;47.10
42421;DHT22;28063;48.140;11.588;2023-07-13T13:36:44;28.50;46.20
42421;DHT22;28063;48.140;11.588;2023-07-13T13:39:19;28.30;45.70
42421;DHT22;28063;48.140;11.588;2023-07-13T13:41:45;28.00;47.00
42421;DHT22;28063;48.140;11.588;2023-07-13T13:44:12;27.80;46.20
42421;DHT22;28063;48.140;11.588;2023-07-13T13:46:38;27.70;46.60
42421;DHT22;28063;48.140;11.588;2023-07-13T13:49:04;27.60;46.60
42421;DHT22;28063;48.140;11.588;2023-07-13T13:51:29;27.30;47.30
42421;DHT22;28063;48.140;11.588;2023-07-13T13:53:55;27.10;47.30
42421;DHT22;28063;48.140;11.588;2023-07-13T13:56:21;27.00;47.60
42421;DHT22;28063;48.140;11.588;2023-07-13T13:58:47;27.00;47.80
42421;DHT22;28063;48.140;11.588;2023-07-13T14:01:22;26.90;47.90
42421;DHT22;28063;48.140;11.588;2023-07-13T14:03:49;26.80;48.20
42421;DHT22;28063;48.140;11.588;2023-07-13T14:06:17;27.10;47.90
42421;DHT22;28063;48.140;11.588;2023-07-13T14:08:43;27.30;47.80
42421;DHT22;28063;48.140;11.588;2023-07-13T14:11:14;27.20;47.30
42421;DHT22;28063;48.140;11.588;2023-07-13T14:13:47;27.20;48.00
42421;DHT22;28063;48.140;11.588;2023-07-13T14:16:19;27.00;47.50
42421;DHT22;28063;48.140;11.588;2023-07-13T14:18:46;26.90;47.60
42421;DHT22;28063;48.140;11.588;2023-07-13T14:21:22;26.80;48.30
42421;DHT22;28063;48.140;11.588;2023-07-13T14:23:48;26.70;48.20
42421;DHT22;28063;48.140;11.588;2023-07-13T14:26:22;26.70;48.80
42421;DHT22;28063;48.140;11.588;2023-07-13T14:28:50;26.80;48.10
42421;DHT22;28063;48.140;11.588;2023-07-13T14:31:17;26.60;48.80
42421;DHT22;28063;48.140;11.588;2023-07-13T14:33:44;26.30;49.30
42421;DHT22;28063;48.140;11.588;2023-07-13T14:36:27;26.30;49.90
42421;DHT22;28063;48.140;11.588;2023-07-13T14:38:54;26.30;49.30
42421;DHT22;28063;48.140;11.588;2023-07-13T14:41:20;26.20;49.90
42421;DHT22;28063;48.140;11.588;2023-07-13T14:43:47;26.20;49.60
42421;DHT22;28063;48.140;11.588;2023-07-13T14:46:33;26.40;49.60
42421;DHT22;28063;48.140;11.588;2023-07-13T14:49:28;26.50;49.20
42421;DHT22;28063;48.140;11.588;2023-07-13T14:51:56;26.50;49.30
42421;DHT22;28063;48.140;11.588;2023-07-13T14:54:25;26.90;48.80
42421;DHT22;28063;48.140;11.588;2023-07-13T14:56:51;27.10;48.10
42421;DHT22;28063;48.140;11.588;2023-07-13T14:59:17;27.10;47.60
42421;DHT22;28063;48.140;11.588;2023-07-13T15:01:45;27.00;47.50
42421;DHT22;28063;48.140;11.588;2023-07-13T15:04:12;26.90;48.20
42421;DHT22;28063;48.140;11.588;2023-07-13T15:06:58;26.90;48.30
42421;DHT22;28063;48.140;11.588;2023-07-13T15:09:25;26.80;48.30
42421;DHT22;28063;48.140;11.588;2023-07-13T15:11:58;26.80;48.30
42421;DHT22;28063;48.140;11.588;2023-07-13T15:14:24;26.80;48.30
42421;DHT22;28063;48.140;11.588;2023-07-13T15:16:52;26.70;47.80
42421;DHT22;28063;48.140;11.588;2023-07-13T15:19:19;26.50;48.20
42421;DHT22;28063;48.140;11.588;2023-07-13T15:21:46;26.40;49.00
42421;DHT22;28063;48.140;11.588;2023-07-13T15:24:13;26.40;48.90
42421;DHT22;28063;48.140;11.588;2023-07-13T15:26:39;26.50;49.00
42421;DHT22;28063;48.140;11.588;2023-07-13T15:29:05;26.30;49.00
42421;DHT22;28063;48.140;11.588;2023-07-13T15:31:32;26.30;49.10
42421;DHT22;28063;48.140;11.588;2023-07-13T15:33:59;26.30;48.80
42421;DHT22;28063;48.140;11.588;2023-07-13T15:36:25;26.20;49.80
42421;DHT22;28063;48.140;11.588;2023-07-13T15:38:55;26.10;49.30
42421;DHT22;28063;48.140;11.588;2023-07-13T15:41:26;26.20;49.20
42421;DHT22;28063;48.140;11.588;2023-07-13T15:43:57;26.10;49.30
42421;DHT22;28063;48.140;11.588;2023-07-13T15:46:27;26.00;48.90
42421;DHT22;28063;48.140;11.588;2023-07-13T15:48:54;26.10;49.30
42421;DHT22;28063;48.140;11.588;2023-07-13T15:51:24;26.30;48.80
42421;DHT22;28063;48.140;11.588;2023-07-13T15:53:53;26.30;48.80
42421;DHT22;28063;48.140;11.588;2023-07-13T15:56:28;26.30;49.00
42421;DHT22;28063;48.140;11.588;2023-07-13T15:58:54;26.20;48.80
42421;DHT22;28063;48.140;11.588;2023-07-13T16:01:22;26.20;49.30
42421;DHT22;28063;48.140;11.588;2023-07-13T16:03:48;26.00;49.00
42421;DHT22;28063;48.140;11.588;2023-07-13T16:06:19;25.70;49.20
42421;DHT22;28063;48.140;11.588;2023-07-13T16:08:48;25.60;49.70
42421;DHT22;28063;48.140;11.588;2023-07-13T16:11:35;25.50;50.10
42421;DHT22;28063;48.140;11.588;2023-07-13T16:14:02;25.50;51.20
42421;DHT22;28063;48.140;11.588;2023-07-13T16:16:32;25.50;50.50
42421;DHT22;28063;48.140;11.588;2023-07-13T16:19:02;25.40;50.80
42421;DHT22;28063;48.140;11.588;2023-07-13T16:21:30;25.50;50.80
42421;DHT22;28063;48.140;11.588;2023-07-13T16:23:58;25.50;50.70
42421;DHT22;28063;48.140;11.588;2023-07-13T16:26:35;25.40;50.40
42421;DHT22;28063;48.140;11.588;2023-07-13T16:29:14;25.30;51.10
42421;DHT22;28063;48.140;11.588;2023-07-13T16:31:41;25.30;51.40